Time;durP1;ratioP1;P1;durP2;ratioP2;P2;SDS_P1;SDS_P2;PMS_P1;PMS_P2;Temp;Humidity;BMP_temperature;BMP_pressure;BME280_temperature;BME280_humidity;BME280_pressure;Samples;Min_cycle;Max_cycle;Signal;HPM_P1;HPM_P2
2021/11/11 00:00:09;;;;;;;0.30;0.20;;;;;;;;;;4181424;28;20115;-33
2021/11/11 00:02:13;;;;;;;0.40;0.30;;;;;;;;;;4181960;28;20061;-37
2021/11/11 00:04:18;;;;;;;0.40;0.15;;;;;;;;;;4181563;28;20083;-34
2021/11/11 00:06:19;;;;;;;0.22;0.20;;;;;;;;;;4181078;28;20057;-33
2021/11/11 00:08:20;;;;;;;0.40;0.13;;;;;;;;;;4169456;28;20053;-36
2021/11/11 00:10:23;;;;;;;0.30;0.10;;;;;;;;;;4177989;28;20091;-38
2021/11/11 00:12:25;;;;;;;0.77;0.20;;;;;;;;;;4181893;28;20507;-36
2021/11/11 00:14:27;;;;;;;0.75;0.30;;;;;;;;;;4182019;28;20057;-37
2021/11/11 00:16:28;;;;;;;0.30;0.20;;;;;;;;;;4181187;28;20497;-33
2021/11/11 00:18:29;;;;;;;0.70;0.32;;;;;;;;;;4165339;28;20494;-38
2021/11/11 00:20:31;;;;;;;0.30;0.10;;;;;;;;;;4187783;28;20057;-37
2021/11/11 00:22:35;;;;;;;0.40;0.20;;;;;;;;;;4179881;28;20083;-33
2021/11/11 00:24:37;;;;;;;0.30;0.10;;;;;;;;;;4180725;28;20452;-36
2021/11/11 00:26:38;;;;;;;0.52;0.10;;;;;;;;;;4181160;28;20057;-33
2021/11/11 00:28:40;;;;;;;0.90;0.38;;;;;;;;;;4181473;28;20057;-35
2021/11/11 00:30:41;;;;;;;0.25;0.20;;;;;;;;;;4180870;28;20053;-35
2021/11/11 00:32:43;;;;;;;0.63;0.20;;;;;;;;;;4183127;28;20095;-36
2021/11/11 00:34:45;;;;;;;0.85;0.30;;;;;;;;;;4181591;28;20063;-37
2021/11/11 00:36:47;;;;;;;0.52;0.20;;;;;;;;;;4181270;28;20064;-33
2021/11/11 00:38:48;;;;;;;0.30;0.20;;;;;;;;;;4173448;28;20453;-33
2021/11/11 00:40:49;;;;;;;0.40;0.10;;;;;;;;;;4181076;28;20485;-36
2021/11/11 00:42:52;;;;;;;0.20;0.10;;;;;;;;;;4181465;28;20362;-33
2021/11/11 00:44:53;;;;;;;0.50;0.10;;;;;;;;;;4180851;28;20053;-36
2021/11/11 00:46:54;;;;;;;0.28;0.10;;;;;;;;;;4173154;28;20049;-36
2021/11/11 00:48:55;;;;;;;0.32;0.03;;;;;;;;;;4175774;28;20083;-36
2021/11/11 00:50:57;;;;;;;0.20;0.10;;;;;;;;;;4181103;28;20142;-32
2021/11/11 00:52:58;;;;;;;0.85;0.30;;;;;;;;;;4163313;28;20065;-34
2021/11/11 00:55:01;;;;;;;0.50;0.15;;;;;;;;;;4180098;28;20057;-33
2021/11/11 00:57:20;;;;;;;0.73;0.20;;;;;;;;;;4163592;28;20103;-37
2021/11/11 00:59:21;;;;;;;0.20;0.10;;;;;;;;;;4180526;28;20481;-36
2021/11/11 01:01:23;;;;;;;0.20;0.20;;;;;;;;;;4180209;28;20137;-34
2021/11/11 01:03:31;;;;;;;0.35;0.20;;;;;;;;;;4180682;28;20107;-40
2021/11/11 01:05:33;;;;;;;0.47;0.20;;;;;;;;;;4182768;28;20540;-35
2021/11/11 01:07:35;;;;;;;0.60;0.25;;;;;;;;;;4190984;28;20057;-33
2021/11/11 01:09:37;;;;;;;0.32;0.20;;;;;;;;;;4168261;28;20412;-37
2021/11/11 01:11:39;;;;;;;0.55;0.10;;;;;;;;;;4185318;28;20057;-35
2021/11/11 01:13:40;;;;;;;0.13;0.10;;;;;;;;;;4162877;28;20057;-33
2021/11/11 01:15:41;;;;;;;0.10;0.10;;;;;;;;;;4180597;28;20102;-37
2021/11/11 01:17:43;;;;;;;0.30;0.20;;;;;;;;;;4180757;28;20416;-33
2021/11/11 01:19:44;;;;;;;0.52;0.20;;;;;;;;;;4180388;28;20065;-33
2021/11/11 01:21:45;;;;;;;0.40;0.30;;;;;;;;;;4179614;28;20091;-34
2021/11/11 01:23:46;;;;;;;0.10;0.10;;;;;;;;;;4163253;28;20112;-34
2021/11/11 01:25:48;;;;;;;0.73;0.20;;;;;;;;;;4180648;28;20103;-36
2021/11/11 01:27:50;;;;;;;0.60;0.40;;;;;;;;;;4180724;28;20044;-38
2021/11/11 01:29:57;;;;;;;0.35;0.10;;;;;;;;;;4162411;28;20088;-35
2021/11/11 01:31:59;;;;;;;0.63;0.10;;;;;;;;;;4169370;28;20057;-37
2021/11/11 01:34:01;;;;;;;0.50;0.20;;;;;;;;;;4176811;28;20056;-34
2021/11/11 01:36:03;;;;;;;0.95;0.20;;;;;;;;;;4162820;28;20057;-38
2021/11/11 01:38:24;;;;;;;0.32;0.10;;;;;;;;;;4154632;28;20417;-36
2021/11/11 01:40:27;;;;;;;0.35;0.10;;;;;;;;;;4162925;28;20076;-32
2021/11/11 01:42:42;;;;;;;0.35;0.20;;;;;;;;;;4176605;28;20053;-35
2021/11/11 01:44:51;;;;;;;0.20;0.10;;;;;;;;;;4154552;28;20235;-35
2021/11/11 01:46:56;;;;;;;0.68;0.20;;;;;;;;;;4162711;28;20065;-38
2021/11/11 01:48:59;;;;;;;1.25;0.30;;;;;;;;;;4168387;28;20049;-39
2021/11/11 01:51:01;;;;;;;0.20;0.10;;;;;;;;;;4150611;28;20041;-39
2021/11/11 01:53:12;;;;;;;0.73;0.15;;;;;;;;;;4162322;28;20049;-32
2021/11/11 01:55:15;;;;;;;0.20;0.10;;;;;;;;;;4180094;28;20102;-35
2021/11/11 01:57:18;;;;;;;0.50;0.10;;;;;;;;;;4162762;28;20053;-34
2021/11/11 01:59:24;;;;;;;0.10;0.10;;;;;;;;;;4179045;28;20496;-33
2021/11/11 02:01:27;;;;;;;0.40;0.20;;;;;;;;;;4178197;28;20115;-36
2021/11/11 02:03:29;;;;;;;0.50;0.20;;;;;;;;;;4148168;28;20104;-33
2021/11/11 02:05:42;;;;;;;0.20;0.10;;;;;;;;;;4162469;28;20505;-33
2021/11/11 02:07:44;;;;;;;0.30;0.10;;;;;;;;;;4162696;28;20053;-33
2021/11/11 02:09:46;;;;;;;0.40;0.10;;;;;;;;;;4157118;28;20441;-33
2021/11/11 02:11:51;;;;;;;0.10;0.10;;;;;;;;;;4178657;28;20378;-34
2021/11/11 02:13:52;;;;;;;0.10;0.10;;;;;;;;;;4162492;28;20053;-34
2021/11/11 02:15:56;;;;;;;0.10;0.10;;;;;;;;;;4161803;28;20418;-35
2021/11/11 02:18:04;;;;;;;0.22;0.20;;;;;;;;;;4162108;28;20049;-37
2021/11/11 02:20:12;;;;;;;0.28;0.20;;;;;;;;;;4174951;28;20060;-32
2021/11/11 02:22:31;;;;;;;0.10;0.10;;;;;;;;;;4151468;28;20053;-33
2021/11/11 02:24:36;;;;;;;0.10;0.10;;;;;;;;;;4169615;28;20052;-32
2021/11/11 02:27:03;;;;;;;0.60;0.17;;;;;;;;;;4162746;28;20104;-34
2021/11/11 02:29:05;;;;;;;0.32;0.10;;;;;;;;;;4161778;28;20061;-32
2021/11/11 02:31:08;;;;;;;0.77;0.30;;;;;;;;;;4140219;28;20169;-32
2021/11/11 02:33:22;;;;;;;0.30;0.10;;;;;;;;;;4162152;28;20057;-34
2021/11/11 02:35:24;;;;;;;0.52;0.20;;;;;;;;;;4145676;28;20506;-35
2021/11/11 02:37:28;;;;;;;0.22;0.10;;;;;;;;;;4145725;28;20577;-37
2021/11/11 02:39:39;;;;;;;0.52;0.10;;;;;;;;;;4145628;28;20517;-33
2021/11/11 02:41:45;;;;;;;0.40;0.20;;;;;;;;;;4154498;28;20107;-35
2021/11/11 02:43:46;;;;;;;0.52;0.30;;;;;;;;;;4163566;28;20050;-32
2021/11/11 02:45:52;;;;;;;0.28;0.10;;;;;;;;;;4145060;28;20112;-32
2021/11/11 02:47:58;;;;;;;0.30;0.10;;;;;;;;;;4149540;28;20053;-35
2021/11/11 02:50:03;;;;;;;0.35;0.15;;;;;;;;;;4155538;28;20058;-32
2021/11/11 02:52:05;;;;;;;0.32;0.10;;;;;;;;;;4163120;28;20053;-35
2021/11/11 02:54:07;;;;;;;0.70;0.30;;;;;;;;;;4145342;28;20557;-35
2021/11/11 02:56:09;;;;;;;0.22;0.20;;;;;;;;;;4159234;28;20064;-34
2021/11/11 02:58:17;;;;;;;0.30;0.10;;;;;;;;;;4129091;28;20423;-35
2021/11/11 03:00:22;;;;;;;0.40;0.20;;;;;;;;;;4135125;28;20065;-34
2021/11/11 03:02:27;;;;;;;0.22;0.10;;;;;;;;;;4146814;28;20096;-36
2021/11/11 03:04:29;;;;;;;0.63;0.20;;;;;;;;;;4136549;28;20054;-32
2021/11/11 03:06:32;;;;;;;0.13;0.10;;;;;;;;;;4147761;28;20084;-37
2021/11/11 03:08:33;;;;;;;0.95;0.22;;;;;;;;;;4161005;28;20062;-36
2021/11/11 03:10:37;;;;;;;0.52;0.25;;;;;;;;;;4155215;28;20049;-35
2021/11/11 03:12:38;;;;;;;0.20;0.10;;;;;;;;;;4148604;28;20062;-34
2021/11/11 03:14:41;;;;;;;0.10;0.10;;;;;;;;;;4147962;28;20561;-33
2021/11/11 03:16:42;;;;;;;0.10;0.10;;;;;;;;;;4180177;28;20390;-33
2021/11/11 03:18:43;;;;;;;0.30;0.15;;;;;;;;;;4166135;28;20053;-38
2021/11/11 03:20:45;;;;;;;0.28;0.10;;;;;;;;;;4162642;28;20057;-37
2021/11/11 03:22:48;;;;;;;0.60;0.10;;;;;;;;;;4148481;28;20517;-33
2021/11/11 03:24:50;;;;;;;0.20;0.10;;;;;;;;;;4164604;28;20088;-33
2021/11/11 03:26:52;;;;;;;0.10;0.10;;;;;;;;;;4164674;28;20115;-32
2021/11/11 03:28:54;;;;;;;0.30;0.10;;;;;;;;;;4164602;28;20552;-36
2021/11/11 03:31:05;;;;;;;0.55;0.17;;;;;;;;;;4147821;28;20417;-35
2021/11/11 03:33:07;;;;;;;0.15;0.10;;;;;;;;;;4164738;28;20457;-32
2021/11/11 03:35:14;;;;;;;0.38;0.20;;;;;;;;;;4148389;28;20096;-35
2021/11/11 03:37:22;;;;;;;0.40;0.20;;;;;;;;;;4154680;28;20057;-32
2021/11/11 03:39:25;;;;;;;0.43;0.13;;;;;;;;;;4169355;28;20061;-38
2021/11/11 03:41:27;;;;;;;0.10;0.10;;;;;;;;;;4140491;28;20054;-32
2021/11/11 03:43:28;;;;;;;0.47;0.10;;;;;;;;;;4164384;28;20123;-35
2021/11/11 03:45:41;;;;;;;0.30;0.20;;;;;;;;;;4164063;28;20084;-32
2021/11/11 03:47:43;;;;;;;0.35;0.20;;;;;;;;;;4148219;28;20522;-33
2021/11/11 03:49:45;;;;;;;0.45;0.13;;;;;;;;;;4147974;28;20149;-34
2021/11/11 03:51:46;;;;;;;0.20;0.10;;;;;;;;;;4165821;28;20083;-33
2021/11/11 03:53:51;;;;;;;0.20;0.13;;;;;;;;;;4144537;28;20498;-35
2021/11/11 03:55:53;;;;;;;0.40;0.20;;;;;;;;;;4165334;28;20152;-32
2021/11/11 03:57:59;;;;;;;0.17;0.13;;;;;;;;;;4147796;28;20054;-37
2021/11/11 04:00:07;;;;;;;0.38;0.17;;;;;;;;;;4163772;28;20119;-34
2021/11/11 04:02:16;;;;;;;0.90;0.20;;;;;;;;;;4165536;28;20061;-34
2021/11/11 04:04:17;;;;;;;0.90;0.20;;;;;;;;;;4137134;28;20057;-32
2021/11/11 04:06:19;;;;;;;0.13;0.10;;;;;;;;;;4161280;28;20060;-33
2021/11/11 04:08:20;;;;;;;0.20;0.10;;;;;;;;;;4115318;28;20428;-34
2021/11/11 04:10:26;;;;;;;0.30;0.10;;;;;;;;;;4153172;28;20541;-35
2021/11/11 04:12:33;;;;;;;1.05;0.20;;;;;;;;;;4147561;28;20526;-34
2021/11/11 04:14:34;;;;;;;0.40;0.20;;;;;;;;;;4147443;28;20181;-38
2021/11/11 04:16:35;;;;;;;0.32;0.22;;;;;;;;;;4147356;28;20084;-37
2021/11/11 04:18:36;;;;;;;0.13;0.10;;;;;;;;;;4134563;28;20069;-33
2021/11/11 04:20:38;;;;;;;0.40;0.10;;;;;;;;;;4160541;28;20053;-33
2021/11/11 04:22:39;;;;;;;0.20;0.10;;;;;;;;;;4173735;28;20137;-34
2021/11/11 04:24:44;;;;;;;0.20;0.10;;;;;;;;;;4180204;28;20407;-34
2021/11/11 04:27:08;;;;;;;0.10;0.10;;;;;;;;;;4163841;28;20525;-33
2021/11/11 04:29:22;;;;;;;0.45;0.20;;;;;;;;;;4170892;28;20072;-32
2021/11/11 04:31:43;;;;;;;0.10;0.10;;;;;;;;;;4152998;28;20065;-34
2021/11/11 04:33:46;;;;;;;0.20;0.20;;;;;;;;;;4179352;28;20108;-33
2021/11/11 04:35:52;;;;;;;0.43;0.20;;;;;;;;;;4163564;28;20054;-32
2021/11/11 04:38:01;;;;;;;0.20;0.20;;;;;;;;;;4166765;28;20053;-35
2021/11/11 04:40:33;;;;;;;0.40;0.20;;;;;;;;;;4163782;28;20100;-33
2021/11/11 04:43:04;;;;;;;0.82;0.17;;;;;;;;;;4151199;28;20387;-34
2021/11/11 04:50:04;;;;;;;0.38;0.20;;;;;;;;;;4181104;28;20500;-32
2021/11/11 05:03:36;;;;;;;0.50;0.20;;;;;;;;;;4146944;28;20205;-34
2021/11/11 05:05:38;;;;;;;0.20;0.13;;;;;;;;;;4172975;28;20045;-32
2021/11/11 05:07:40;;;;;;;0.20;0.10;;;;;;;;;;4169155;28;20064;-33
2021/11/11 05:09:44;;;;;;;0.55;0.20;;;;;;;;;;4163467;28;20053;-34
2021/11/11 05:11:45;;;;;;;0.10;0.08;;;;;;;;;;4180861;28;20053;-34
2021/11/11 05:13:46;;;;;;;0.10;0.10;;;;;;;;;;4163222;28;20053;-35
2021/11/11 05:15:51;;;;;;;0.40;0.35;;;;;;;;;;4179224;28;20516;-33
2021/11/11 05:17:52;;;;;;;0.22;0.10;;;;;;;;;;4179697;28;20053;-35
2021/11/11 05:19:56;;;;;;;0.73;0.22;;;;;;;;;;4155305;28;20071;-39
2021/11/11 05:21:58;;;;;;;0.70;0.20;;;;;;;;;;4132930;28;20419;-39
2021/11/11 05:23:59;;;;;;;0.20;0.10;;;;;;;;;;4130481;28;20081;-39
2021/11/11 05:26:02;;;;;;;0.17;0.10;;;;;;;;;;4146109;28;20060;-39
2021/11/11 05:28:04;;;;;;;0.45;0.20;;;;;;;;;;4163151;28;20072;-38
2021/11/11 05:30:08;;;;;;;0.20;0.10;;;;;;;;;;4146152;28;20112;-39
2021/11/11 05:32:10;;;;;;;0.60;0.15;;;;;;;;;;4146805;28;20403;-40
2021/11/11 05:34:12;;;;;;;0.15;0.10;;;;;;;;;;4146497;28;20085;-36
2021/11/11 05:36:13;;;;;;;0.32;0.10;;;;;;;;;;4146634;28;20066;-35
2021/11/11 05:38:17;;;;;;;0.20;0.20;;;;;;;;;;4151191;28;20480;-33
2021/11/11 05:40:19;;;;;;;0.38;0.10;;;;;;;;;;4167071;28;20066;-34
2021/11/11 05:42:21;;;;;;;0.20;0.10;;;;;;;;;;4145811;28;20472;-36
2021/11/11 05:44:23;;;;;;;0.25;0.10;;;;;;;;;;4148797;28;20065;-37
2021/11/11 05:46:26;;;;;;;0.28;0.10;;;;;;;;;;4154222;28;20058;-38
2021/11/11 05:48:28;;;;;;;0.43;0.20;;;;;;;;;;4146479;28;20090;-33
2021/11/11 05:50:30;;;;;;;0.40;0.30;;;;;;;;;;4146217;28;20062;-33
2021/11/11 05:52:32;;;;;;;0.38;0.20;;;;;;;;;;4163821;28;20115;-33
2021/11/11 05:54:37;;;;;;;1.75;0.30;;;;;;;;;;4145992;28;20061;-35
2021/11/11 05:56:39;;;;;;;0.30;0.10;;;;;;;;;;4162686;28;20049;-32
2021/11/11 05:58:40;;;;;;;0.57;0.30;;;;;;;;;;4146505;28;20053;-36
2021/11/11 06:00:41;;;;;;;0.63;0.28;;;;;;;;;;4153616;28;20057;-32
2021/11/11 06:02:49;;;;;;;0.40;0.38;;;;;;;;;;4167704;28;20107;-34
2021/11/11 06:04:57;;;;;;;0.20;0.20;;;;;;;;;;4157315;28;20057;-37
2021/11/11 06:07:00;;;;;;;0.40;0.20;;;;;;;;;;4154636;28;20475;-33
2021/11/11 06:09:01;;;;;;;0.30;0.20;;;;;;;;;;4147322;28;20283;-34
2021/11/11 06:11:03;;;;;;;0.30;0.20;;;;;;;;;;4171128;28;20064;-33
2021/11/11 06:13:04;;;;;;;0.68;0.30;;;;;;;;;;4159741;28;20061;-34
2021/11/11 06:15:06;;;;;;;0.40;0.20;;;;;;;;;;4153401;28;20533;-36
2021/11/11 06:17:08;;;;;;;0.50;0.30;;;;;;;;;;4148552;28;20469;-34
2021/11/11 06:19:10;;;;;;;0.65;0.40;;;;;;;;;;4132769;28;20054;-40
2021/11/11 06:21:11;;;;;;;0.73;0.30;;;;;;;;;;4172235;28;20110;-33
2021/11/11 06:23:13;;;;;;;0.60;0.30;;;;;;;;;;4176437;28;20290;-35
2021/11/11 06:25:15;;;;;;;0.65;0.20;;;;;;;;;;4165539;28;20555;-37
2021/11/11 06:27:21;;;;;;;0.50;0.22;;;;;;;;;;4139904;28;20177;-33
2021/11/11 06:29:23;;;;;;;1.50;0.20;;;;;;;;;;4164837;28;20376;-35
2021/11/11 06:31:24;;;;;;;0.57;0.30;;;;;;;;;;4154270;28;20056;-34
2021/11/11 06:33:26;;;;;;;0.17;0.15;;;;;;;;;;4154091;28;20057;-38
2021/11/11 06:35:29;;;;;;;0.40;0.13;;;;;;;;;;4163163;28;20049;-35
2021/11/11 06:37:30;;;;;;;1.83;0.30;;;;;;;;;;4158748;28;20408;-36
2021/11/11 06:39:31;;;;;;;0.88;0.28;;;;;;;;;;4173867;28;20107;-33
2021/11/11 06:41:32;;;;;;;1.50;0.20;;;;;;;;;;4168107;28;20053;-33
2021/11/11 06:43:34;;;;;;;1.90;0.25;;;;;;;;;;4171316;28;20106;-37
2021/11/11 06:45:43;;;;;;;0.60;0.40;;;;;;;;;;4178417;28;20423;-35
2021/11/11 06:47:44;;;;;;;0.70;0.30;;;;;;;;;;4171739;28;20657;-33
2021/11/11 06:49:46;;;;;;;0.45;0.20;;;;;;;;;;4170283;28;20053;-33
2021/11/11 06:51:47;;;;;;;0.80;0.30;;;;;;;;;;4182405;28;20107;-33
2021/11/11 06:53:48;;;;;;;0.77;0.30;;;;;;;;;;4165680;28;20397;-34
2021/11/11 06:55:50;;;;;;;0.52;0.25;;;;;;;;;;4173854;28;20118;-37
2021/11/11 06:57:51;;;;;;;0.68;0.20;;;;;;;;;;4168100;28;20449;-39
2021/11/11 06:59:53;;;;;;;1.20;0.30;;;;;;;;;;4154826;28;20064;-37
2021/11/11 07:01:54;;;;;;;1.25;0.40;;;;;;;;;;4161577;28;20509;-35
2021/11/11 07:03:55;;;;;;;0.75;0.30;;;;;;;;;;4161600;28;20409;-35
2021/11/11 07:05:56;;;;;;;0.52;0.30;;;;;;;;;;4162421;28;20068;-32
2021/11/11 07:07:58;;;;;;;1.15;0.45;;;;;;;;;;4180295;28;20057;-33
2021/11/11 07:09:59;;;;;;;0.63;0.28;;;;;;;;;;4181489;28;20061;-34
2021/11/11 07:12:00;;;;;;;1.70;0.50;;;;;;;;;;4177840;28;20123;-36
2021/11/11 07:14:01;;;;;;;1.00;0.30;;;;;;;;;;4177746;28;20080;-34
2021/11/11 07:16:03;;;;;;;0.98;0.30;;;;;;;;;;4174461;28;20554;-36
2021/11/11 07:18:05;;;;;;;0.63;0.30;;;;;;;;;;4157910;28;20100;-36
2021/11/11 07:20:10;;;;;;;4.22;0.30;;;;;;;;;;4177755;28;20052;-34
2021/11/11 07:22:11;;;;;;;0.60;0.40;;;;;;;;;;4178001;28;20630;-34
2021/11/11 07:24:12;;;;;;;0.60;0.38;;;;;;;;;;4157968;28;20156;-32
2021/11/11 07:26:13;;;;;;;1.02;0.30;;;;;;;;;;4153991;28;20112;-36
2021/11/11 07:28:15;;;;;;;1.77;0.35;;;;;;;;;;4170037;28;20106;-33
2021/11/11 07:30:17;;;;;;;0.75;0.30;;;;;;;;;;4167903;28;20053;-32
2021/11/11 07:32:18;;;;;;;0.98;0.50;;;;;;;;;;4171505;28;20099;-32
2021/11/11 07:34:20;;;;;;;0.65;0.25;;;;;;;;;;4156447;28;20120;-34
2021/11/11 07:36:22;;;;;;;1.63;0.50;;;;;;;;;;4169616;28;20508;-33
2021/11/11 07:38:23;;;;;;;0.30;0.20;;;;;;;;;;4161002;28;20084;-32
2021/11/11 07:40:25;;;;;;;3.75;0.43;;;;;;;;;;4174111;28;20114;-39
2021/11/11 07:42:26;;;;;;;1.38;0.52;;;;;;;;;;4174992;28;20053;-32
2021/11/11 07:44:33;;;;;;;2.33;0.60;;;;;;;;;;4160173;28;20155;-35
2021/11/11 07:46:35;;;;;;;1.73;0.50;;;;;;;;;;4176792;28;20496;-32
2021/11/11 07:48:36;;;;;;;0.85;0.30;;;;;;;;;;4168385;28;20492;-33
2021/11/11 07:50:39;;;;;;;1.58;0.50;;;;;;;;;;4166572;28;20052;-34
2021/11/11 07:52:41;;;;;;;0.45;0.30;;;;;;;;;;4169201;28;20401;-39
2021/11/11 07:54:42;;;;;;;0.88;0.40;;;;;;;;;;4169927;28;20214;-33
2021/11/11 07:56:43;;;;;;;1.05;0.30;;;;;;;;;;4171594;28;20048;-34
2021/11/11 07:58:45;;;;;;;1.00;0.50;;;;;;;;;;4185675;28;20048;-32
2021/11/11 08:00:46;;;;;;;2.40;0.50;;;;;;;;;;4174745;28;20061;-33
2021/11/11 08:02:48;;;;;;;1.10;0.50;;;;;;;;;;4176875;28;20087;-34
2021/11/11 08:04:50;;;;;;;2.80;0.38;;;;;;;;;;4169237;28;20172;-36
2021/11/11 08:06:51;;;;;;;0.70;0.22;;;;;;;;;;4166980;28;20053;-39
2021/11/11 08:08:53;;;;;;;1.95;0.68;;;;;;;;;;4164571;28;20072;-38
2021/11/11 08:10:55;;;;;;;1.38;0.55;;;;;;;;;;4171307;28;20099;-34
2021/11/11 08:12:56;;;;;;;1.08;0.68;;;;;;;;;;4166684;28;20057;-32
2021/11/11 08:14:58;;;;;;;0.93;0.40;;;;;;;;;;4167105;28;20802;-33
2021/11/11 08:16:59;;;;;;;1.80;0.50;;;;;;;;;;4156474;28;20079;-33
2021/11/11 08:19:00;;;;;;;2.53;0.70;;;;;;;;;;4167608;28;20439;-38
2021/11/11 08:21:01;;;;;;;0.55;0.40;;;;;;;;;;4168501;28;20049;-35
2021/11/11 08:23:02;;;;;;;1.58;0.60;;;;;;;;;;4164354;28;20052;-38
2021/11/11 08:25:07;;;;;;;0.73;0.50;;;;;;;;;;4162590;28;20135;-37
2021/11/11 08:27:12;;;;;;;1.50;0.70;;;;;;;;;;4166442;28;20045;-32
2021/11/11 08:29:13;;;;;;;1.00;0.35;;;;;;;;;;4156745;28;20549;-34
2021/11/11 08:31:16;;;;;;;0.95;0.40;;;;;;;;;;4165515;28;20061;-35
2021/11/11 08:33:17;;;;;;;0.50;0.30;;;;;;;;;;4171863;28;20049;-34
2021/11/11 08:35:20;;;;;;;1.20;0.40;;;;;;;;;;4169391;28;20497;-33
2021/11/11 08:37:21;;;;;;;0.73;0.35;;;;;;;;;;4164389;28;20450;-34
2021/11/11 08:39:23;;;;;;;0.90;0.32;;;;;;;;;;4173024;28;20061;-36
2021/11/11 08:41:26;;;;;;;1.10;0.43;;;;;;;;;;4176836;28;20432;-32
2021/11/11 08:43:27;;;;;;;2.40;0.50;;;;;;;;;;4174054;28;20559;-32
2021/11/11 08:45:31;;;;;;;1.08;0.50;;;;;;;;;;4164167;28;20370;-32
2021/11/11 08:47:33;;;;;;;1.35;0.60;;;;;;;;;;4155101;28;20093;-33
2021/11/11 08:49:34;;;;;;;4.18;0.40;;;;;;;;;;4170891;28;20110;-34
2021/11/11 08:51:36;;;;;;;0.50;0.30;;;;;;;;;;4170698;28;20072;-40
2021/11/11 08:53:37;;;;;;;2.50;0.70;;;;;;;;;;4174118;28;20067;-32
2021/11/11 08:55:39;;;;;;;1.02;0.40;;;;;;;;;;4176076;28;20107;-33
2021/11/11 08:57:40;;;;;;;0.88;0.50;;;;;;;;;;4172548;28;20053;-33
2021/11/11 08:59:41;;;;;;;0.60;0.30;;;;;;;;;;4170156;28;20053;-34
2021/11/11 09:01:42;;;;;;;3.10;0.30;;;;;;;;;;4172634;28;20045;-31
2021/11/11 09:03:43;;;;;;;0.60;0.32;;;;;;;;;;4176198;28;20114;-37
2021/11/11 09:05:46;;;;;;;0.88;0.30;;;;;;;;;;4153227;28;20223;-31
2021/11/11 09:07:48;;;;;;;1.58;0.50;;;;;;;;;;4149466;28;20057;-31
2021/11/11 09:09:49;;;;;;;1.05;0.50;;;;;;;;;;4161513;28;20072;-39
2021/11/11 09:11:50;;;;;;;0.68;0.40;;;;;;;;;;4159464;28;20080;-33
2021/11/11 09:13:51;;;;;;;1.00;0.40;;;;;;;;;;4163960;28;20056;-33
2021/11/11 09:15:52;;;;;;;1.00;0.50;;;;;;;;;;4160511;28;20106;-34
2021/11/11 09:17:55;;;;;;;0.70;0.30;;;;;;;;;;4169641;28;20065;-38
2021/11/11 09:19:58;;;;;;;1.02;0.57;;;;;;;;;;4174882;28;20122;-32
2021/11/11 09:21:59;;;;;;;0.80;0.50;;;;;;;;;;4173552;28;20094;-32
2021/11/11 09:24:00;;;;;;;0.30;0.30;;;;;;;;;;4170949;28;20434;-31
2021/11/11 09:26:02;;;;;;;0.68;0.40;;;;;;;;;;4174813;28;20057;-32
2021/11/11 09:28:04;;;;;;;1.83;0.40;;;;;;;;;;4168919;28;20111;-35
2021/11/11 09:30:09;;;;;;;0.65;0.40;;;;;;;;;;4167331;28;20119;-33
2021/11/11 09:32:10;;;;;;;0.73;0.30;;;;;;;;;;4173002;28;20419;-35
2021/11/11 09:34:11;;;;;;;0.80;0.50;;;;;;;;;;4150082;28;20441;-32
2021/11/11 09:36:14;;;;;;;1.45;0.47;;;;;;;;;;4164560;28;20061;-34
2021/11/11 09:38:15;;;;;;;1.80;0.32;;;;;;;;;;4155022;28;20498;-33
2021/11/11 09:40:19;;;;;;;1.10;0.43;;;;;;;;;;4169537;28;20143;-32
2021/11/11 09:42:22;;;;;;;1.15;0.70;;;;;;;;;;4169081;28;20497;-35
2021/11/11 09:44:25;;;;;;;2.35;0.40;;;;;;;;;;4169010;28;20146;-37
2021/11/11 09:46:26;;;;;;;0.82;0.47;;;;;;;;;;4152891;28;20062;-34
2021/11/11 09:48:28;;;;;;;1.95;0.60;;;;;;;;;;4163877;28;20060;-38
2021/11/11 09:50:29;;;;;;;1.35;0.80;;;;;;;;;;4164917;28;20438;-36
2021/11/11 09:52:31;;;;;;;1.17;0.52;;;;;;;;;;4170214;28;20663;-30
2021/11/11 09:58:56;;;;;;;2.63;0.50;;;;;;;;;;4165127;28;20147;-36
2021/11/11 10:00:59;;;;;;;1.15;0.50;;;;;;;;;;4146457;28;20057;-31
2021/11/11 10:03:00;;;;;;;0.35;0.30;;;;;;;;;;4162788;28;20433;-34
2021/11/11 10:05:01;;;;;;;0.80;0.40;;;;;;;;;;4163549;28;20049;-34
2021/11/11 10:07:03;;;;;;;3.75;0.90;;;;;;;;;;4151503;28;20158;-34
2021/11/11 10:09:21;;;;;;;1.35;0.47;;;;;;;;;;4165662;28;20123;-32
2021/11/11 10:11:22;;;;;;;1.40;0.38;;;;;;;;;;4160329;28;20064;-40
2021/11/11 10:13:24;;;;;;;0.88;0.60;;;;;;;;;;4159712;28;20122;-40
2021/11/11 10:15:25;;;;;;;0.68;0.30;;;;;;;;;;4166647;28;20063;-32
2021/11/11 10:17:27;;;;;;;1.20;0.40;;;;;;;;;;4165587;28;20456;-32
2021/11/11 10:19:30;;;;;;;0.75;0.32;;;;;;;;;;4158054;28;20110;-38
2021/11/11 10:23:49;;;;;;;0.75;0.40;;;;;;;;;;4169010;28;20056;-31
2021/11/11 10:26:26;;;;;;;3.00;0.60;;;;;;;;;;4165175;28;20511;-32
2021/11/11 10:28:38;;;;;;;1.10;0.57;;;;;;;;;;4162421;28;20057;-35
2021/11/11 10:30:39;;;;;;;0.43;0.40;;;;;;;;;;4169169;28;20511;-32
2021/11/11 10:32:50;;;;;;;1.45;0.50;;;;;;;;;;4156921;28;20061;-32
2021/11/11 10:34:54;;;;;;;0.75;0.40;;;;;;;;;;4168249;28;20061;-33
2021/11/11 10:36:56;;;;;;;0.98;0.60;;;;;;;;;;4162896;28;20060;-32
2021/11/11 10:39:23;;;;;;;1.27;0.63;;;;;;;;;;4163009;28;20578;-38
2021/11/11 10:41:31;;;;;;;1.00;0.38;;;;;;;;;;4174241;28;20057;-31
2021/11/11 10:43:32;;;;;;;0.60;0.40;;;;;;;;;;4168847;28;20107;-32
2021/11/11 10:45:37;;;;;;;0.85;0.60;;;;;;;;;;4171165;28;20057;-37
2021/11/11 10:47:40;;;;;;;0.60;0.40;;;;;;;;;;4168642;28;20095;-32
2021/11/11 10:49:43;;;;;;;1.25;0.40;;;;;;;;;;4169198;28;20057;-32
2021/11/11 10:51:44;;;;;;;2.20;0.68;;;;;;;;;;4172278;28;20057;-32
2021/11/11 10:53:48;;;;;;;1.30;0.50;;;;;;;;;;4173812;28;20481;-32
2021/11/11 10:55:54;;;;;;;1.15;0.60;;;;;;;;;;4168423;28;20061;-31
2021/11/11 10:58:02;;;;;;;1.00;0.50;;;;;;;;;;4166977;28;20057;-33
2021/11/11 11:00:21;;;;;;;0.90;0.45;;;;;;;;;;4169258;28;20057;-31
2021/11/11 11:02:22;;;;;;;0.50;0.40;;;;;;;;;;4174345;28;20503;-31
2021/11/11 11:04:27;;;;;;;0.50;0.45;;;;;;;;;;4171696;28;20049;-32
2021/11/11 11:06:29;;;;;;;2.25;0.60;;;;;;;;;;4156861;28;20057;-34
2021/11/11 11:08:30;;;;;;;0.52;0.30;;;;;;;;;;4176707;28;20048;-33
2021/11/11 11:10:32;;;;;;;1.40;0.50;;;;;;;;;;4169666;28;20049;-32
2021/11/11 11:12:33;;;;;;;1.20;0.90;;;;;;;;;;4173789;28;20527;-39
2021/11/11 11:14:41;;;;;;;1.75;0.50;;;;;;;;;;4170748;28;20105;-33
2021/11/11 11:16:42;;;;;;;1.40;0.70;;;;;;;;;;4167196;28;20045;-34
2021/11/11 11:18:48;;;;;;;0.82;0.32;;;;;;;;;;4175450;28;20056;-33
2021/11/11 11:20:54;;;;;;;3.03;0.55;;;;;;;;;;4172465;28;20062;-33
2021/11/11 11:23:11;;;;;;;1.30;0.73;;;;;;;;;;4172244;28;20041;-33
2021/11/11 11:25:12;;;;;;;1.42;0.50;;;;;;;;;;4180811;28;20056;-31
2021/11/11 11:27:15;;;;;;;1.00;0.60;;;;;;;;;;4177076;28;20106;-33
2021/11/11 11:31:41;;;;;;;2.60;0.60;;;;;;;;;;4170679;28;20083;-32
2021/11/11 11:33:45;;;;;;;1.95;0.50;;;;;;;;;;4175819;28;20057;-31
2021/11/11 11:35:46;;;;;;;0.80;0.40;;;;;;;;;;4159457;28;20050;-30
2021/11/11 11:37:47;;;;;;;1.85;0.80;;;;;;;;;;4164069;28;20052;-33
2021/11/11 11:39:54;;;;;;;1.00;0.57;;;;;;;;;;4178412;28;20053;-31
2021/11/11 11:42:00;;;;;;;1.52;0.35;;;;;;;;;;4173784;28;20052;-32
2021/11/11 11:44:22;;;;;;;1.20;0.40;;;;;;;;;;4170009;28;20053;-35
2021/11/11 11:46:25;;;;;;;0.80;0.50;;;;;;;;;;4169203;28;20057;-33
2021/11/11 11:48:28;;;;;;;0.70;0.40;;;;;;;;;;4181758;28;20057;-32
2021/11/11 11:50:34;;;;;;;1.00;0.60;;;;;;;;;;4174003;28;20466;-35
2021/11/11 11:52:37;;;;;;;1.13;0.60;;;;;;;;;;4171131;28;20118;-31
2021/11/11 11:54:44;;;;;;;1.90;0.52;;;;;;;;;;4171248;28;20068;-42
2021/11/11 11:56:51;;;;;;;2.28;0.60;;;;;;;;;;4163659;28;20049;-31
2021/11/11 12:05:14;;;;;;;0.65;0.50;;;;;;;;;;4172935;28;20052;-31
2021/11/11 12:07:25;;;;;;;0.52;0.40;;;;;;;;;;4171095;28;21403;-32
2021/11/11 12:09:43;;;;;;;0.95;0.40;;;;;;;;;;4159494;28;20500;-32
2021/11/11 12:38:53;;;;;;;1.73;0.75;;;;;;;;;;4167185;28;20438;-34
2021/11/11 12:41:07;;;;;;;1.85;0.43;;;;;;;;;;4167513;28;20442;-32
2021/11/11 12:43:15;;;;;;;0.85;0.50;;;;;;;;;;4170501;28;20062;-40
2021/11/11 12:45:19;;;;;;;0.80;0.52;;;;;;;;;;4162018;28;20053;-32
2021/11/11 12:47:34;;;;;;;0.93;0.60;;;;;;;;;;4156749;28;20103;-33
2021/11/11 12:49:36;;;;;;;3.03;0.77;;;;;;;;;;4162522;28;20106;-40
2021/11/11 12:51:37;;;;;;;1.98;0.57;;;;;;;;;;4164403;28;20384;-37
2021/11/11 12:53:44;;;;;;;2.38;0.40;;;;;;;;;;4161275;28;20057;-35
2021/11/11 12:55:54;;;;;;;4.05;0.40;;;;;;;;;;4171842;28;20581;-31
2021/11/11 12:58:00;;;;;;;0.65;0.50;;;;;;;;;;4167268;28;20060;-36
2021/11/11 13:00:04;;;;;;;0.85;0.50;;;;;;;;;;4165866;28;20438;-36
2021/11/11 13:02:06;;;;;;;2.53;0.60;;;;;;;;;;4155297;28;20114;-32
2021/11/11 13:04:15;;;;;;;2.25;0.55;;;;;;;;;;4166808;28;20739;-34
2021/11/11 13:06:43;;;;;;;3.10;0.75;;;;;;;;;;4165836;28;20057;-32
2021/11/11 13:08:55;;;;;;;3.30;0.50;;;;;;;;;;4161397;28;20454;-30
2021/11/11 13:11:06;;;;;;;0.82;0.40;;;;;;;;;;4170548;28;20064;-31
2021/11/11 13:13:09;;;;;;;1.10;0.70;;;;;;;;;;4164828;28;20490;-34
2021/11/11 13:15:13;;;;;;;1.63;0.57;;;;;;;;;;4167376;28;20125;-39
2021/11/11 13:17:16;;;;;;;1.48;0.65;;;;;;;;;;4163280;28;20072;-33
2021/11/11 13:19:33;;;;;;;1.13;0.47;;;;;;;;;;4164703;28;20095;-32
2021/11/11 13:21:50;;;;;;;0.80;0.43;;;;;;;;;;4168890;28;20123;-40